PWSweather.com
Personal Weather Stations
Station Observations
ISANTACA4
Capoeiras Weather Station, Florianopolis, SC 88070450

Capoeiras Weather StationFlorianopolis, SC 88070450

Lat: -27.596, Lon: -48.588

Elevation: 133

Station Type: Oregon WMR 928NX

Latest ConditionsUpdated 2:00:00 PM GMT-03:57 Wednesday, Nov 26, 2014
Currently Today's Max Today's Min Today's Average
Temperature 78.1°F25.6°C 78.1°F25.6°C 70.7°F21.5°C 72.6°F22.6°C
Dew Point 72.5°F22.5°C 72.6°F22.6°C 69.2°F20.7°C 70.4°F21.3°C
Winds Calm Calm 3.0 mph NE4.8 kmh NE - 0.3 mph 0.5 kmh
Wind Gusts -- 7.0 mph11.3 kmh - -
Humidity 83% 96% 83% 93%
Pressure 29.78 in1008.5 mb 29.80 in1009.1 mb 29.75 in1007.5 mb -
Precipitation - 1.18 in30.0 mm - -
Hour Temp Dew Point Humidity Winds Wind Gusts Pressure Precip Precip Rate Daily Precip Total
02:00 PM 78.1°F25.6°C 72.5°F22.5°C 83% Calm Calm -- 29.78 in1008.5 mb 0.00 in0.0 mm 0.00 in/hr0.0 mm/hr 1.18 in30.0 mm
01:45 PM 77.5°F25.3°C 72.0°F22.2°C 83% Calm Calm -- 29.78 in1008.5 mb 0.00 in0.0 mm 0.00 in/hr0.0 mm/hr 1.18 in30.0 mm
01:30 PM 77.4°F25.2°C 72.1°F22.3°C 84% Calm Calm -- 29.79 in1008.8 mb 0.00 in0.0 mm 0.00 in/hr0.0 mm/hr 1.18 in30.0 mm
01:15 PM 77.7°F25.4°C 72.5°F22.5°C 84% Calm Calm -- 29.79 in1008.8 mb 0.00 in0.0 mm 0.00 in/hr0.0 mm/hr 1.18 in30.0 mm
01:00 PM 77.7°F25.4°C 72.5°F22.5°C 84% Calm Calm -- 29.79 in1008.8 mb 0.00 in0.0 mm 0.00 in/hr0.0 mm/hr 1.18 in30.0 mm
12:45 PM 76.8°F24.9°C 72.0°F22.2°C 85% Calm Calm -- 29.79 in1008.8 mb 0.00 in0.0 mm 0.00 in/hr0.0 mm/hr 1.18 in30.0 mm
12:30 PM 76.6°F24.8°C 71.8°F22.1°C 85% Calm Calm -- 29.80 in1009.1 mb 0.00 in0.0 mm 0.00 in/hr0.0 mm/hr 1.18 in30.0 mm
12:15 PM 76.1°F24.5°C 71.6°F22.0°C 86% Calm Calm -- 29.80 in1009.1 mb 0.00 in0.0 mm 0.00 in/hr0.0 mm/hr 1.18 in30.0 mm
12:00 PM 76.6°F24.8°C 72.1°F22.3°C 86% Calm Calm -- 29.80 in1009.1 mb 0.00 in0.0 mm 0.00 in/hr0.0 mm/hr 1.18 in30.0 mm
11:45 AM 76.5°F24.7°C 72.6°F22.6°C 88% Calm Calm -- 29.80 in1009.1 mb 0.00 in0.0 mm 0.00 in/hr0.0 mm/hr 1.18 in30.0 mm
11:30 AM 75.0°F23.9°C 71.6°F22.0°C 89% Calm Calm -- 29.80 in1009.1 mb 0.00 in0.0 mm 0.00 in/hr0.0 mm/hr 1.18 in30.0 mm
11:15 AM 74.5°F23.6°C 71.4°F21.9°C 90% Calm Calm -- 29.80 in1009.1 mb 0.00 in0.0 mm 0.00 in/hr0.0 mm/hr 1.18 in30.0 mm
11:00 AM 73.8°F23.2°C 70.6°F21.4°C 90% Calm Calm -- 29.80 in1009.1 mb 0.00 in0.0 mm 0.00 in/hr0.0 mm/hr 1.18 in30.0 mm
10:45 AM 73.4°F23.0°C 70.9°F21.6°C 92% Calm Calm -- 29.80 in1009.1 mb 0.00 in0.0 mm 0.00 in/hr0.0 mm/hr 1.18 in30.0 mm
10:30 AM 72.7°F22.6°C 70.5°F21.4°C 93% Calm Calm -- 29.80 in1009.1 mb 0.00 in0.0 mm 0.00 in/hr0.0 mm/hr 1.18 in30.0 mm
10:15 AM 72.0°F22.2°C 70.1°F21.2°C 94% Calm Calm -- 29.80 in1009.1 mb 0.00 in0.0 mm 0.00 in/hr0.0 mm/hr 1.18 in30.0 mm
10:00 AM 71.6°F22.0°C 69.8°F21.0°C 94% Calm Calm -- 29.80 in1009.1 mb 0.01 in0.3 mm 0.00 in/hr0.0 mm/hr 1.18 in30.0 mm
09:45 AM 71.4°F21.9°C 69.9°F21.1°C 95% Calm Calm -- 29.80 in1009.1 mb 0.01 in0.3 mm 0.00 in/hr0.0 mm/hr 1.18 in30.0 mm
09:30 AM 71.2°F21.8°C 69.7°F20.9°C 95% Calm Calm 1.0 mph1.6 kmh 29.80 in1009.1 mb 0.01 in0.3 mm 0.00 in/hr0.0 mm/hr 1.18 in30.0 mm
09:15 AM 71.3°F21.8°C 69.8°F21.0°C 95% Calm Calm -- 29.80 in1009.1 mb 0.01 in0.3 mm 0.04 in/hr1.0 mm/hr 1.18 in30.0 mm
09:00 AM 72.0°F22.2°C 70.4°F21.3°C 95% Calm Calm -- 29.80 in1009.1 mb 0.00 in0.0 mm 0.00 in/hr0.0 mm/hr 1.17 in29.7 mm
08:45 AM 71.8°F22.1°C 70.3°F21.3°C 95% Calm Calm -- 29.80 in1009.1 mb 0.00 in0.0 mm 0.00 in/hr0.0 mm/hr 1.17 in29.7 mm
08:30 AM 71.8°F22.1°C 70.6°F21.4°C 96% Calm Calm -- 29.80 in1009.1 mb 0.00 in0.0 mm 0.00 in/hr0.0 mm/hr 1.17 in29.7 mm
08:15 AM 71.8°F22.1°C 70.6°F21.4°C 96% Calm Calm -- 29.80 in1009.1 mb 0.01 in0.3 mm 0.00 in/hr0.0 mm/hr 1.17 in29.7 mm
08:00 AM 71.8°F22.1°C 70.6°F21.4°C 96% Calm Calm -- 29.80 in1009.1 mb 0.01 in0.3 mm 0.00 in/hr0.0 mm/hr 1.17 in29.7 mm
07:45 AM 71.8°F22.1°C 70.6°F21.4°C 96% Calm Calm -- 29.79 in1008.8 mb 0.03 in0.8 mm 0.00 in/hr0.0 mm/hr 1.17 in29.7 mm
07:30 AM 71.4°F21.9°C 69.9°F21.1°C 95% Calm Calm -- 29.79 in1008.8 mb 0.04 in1.0 mm 0.00 in/hr0.0 mm/hr 1.17 in29.7 mm
07:15 AM 71.2°F21.8°C 69.7°F20.9°C 95% Calm Calm -- 29.78 in1008.5 mb 0.09 in2.3 mm 0.00 in/hr0.0 mm/hr 1.16 in29.5 mm
07:00 AM 71.1°F21.7°C 69.9°F21.1°C 96% Calm Calm -- 29.78 in1008.5 mb 0.21 in5.3 mm 0.00 in/hr0.0 mm/hr 1.16 in29.5 mm
06:45 AM 70.9°F21.6°C 69.4°F20.8°C 95% Calm Calm -- 29.77 in1008.1 mb 0.41 in10.4 mm 0.00 in/hr0.0 mm/hr 1.14 in29.0 mm
06:30 AM 70.9°F21.6°C 69.4°F20.8°C 95% Calm Calm -- 29.78 in1008.5 mb 0.43 in10.9 mm 0.00 in/hr0.0 mm/hr 1.12 in28.4 mm
06:15 AM 70.7°F21.5°C 69.2°F20.7°C 95% Calm Calm -- 29.78 in1008.5 mb 0.58 in14.7 mm 0.40 in/hr10.2 mm/hr 1.07 in27.2 mm
06:00 AM 70.9°F21.6°C 69.4°F20.8°C 95% Calm Calm -- 29.77 in1008.1 mb 0.48 in12.2 mm 0.20 in/hr5.1 mm/hr 0.94 in23.9 mm
05:45 AM 71.1°F21.7°C 69.6°F20.9°C 95% Calm Calm -- 29.77 in1008.1 mb 0.33 in8.4 mm 0.00 in/hr0.0 mm/hr 0.73 in18.5 mm
05:30 AM 71.2°F21.8°C 69.7°F20.9°C 95% Calm Calm -- 29.76 in1007.8 mb 0.34 in8.6 mm 0.76 in/hr19.3 mm/hr 0.69 in17.5 mm
05:15 AM 71.4°F21.9°C 69.9°F21.1°C 95% Calm Calm -- 29.76 in1007.8 mb 0.15 in3.8 mm 0.12 in/hr3.0 mm/hr 0.49 in12.4 mm
05:00 AM 71.4°F21.9°C 69.9°F21.1°C 95% Calm Calm -- 29.75 in1007.5 mb 0.12 in3.0 mm 0.08 in/hr2.0 mm/hr 0.45 in11.4 mm
04:45 AM 71.4°F21.9°C 69.9°F21.1°C 95% Calm Calm -- 29.75 in1007.5 mb 0.06 in1.5 mm 0.16 in/hr4.1 mm/hr 0.39 in9.9 mm
04:30 AM 71.2°F21.8°C 69.7°F20.9°C 95% Calm Calm -- 29.75 in1007.5 mb 0.02 in0.5 mm 0.00 in/hr0.0 mm/hr 0.34 in8.6 mm
04:15 AM 71.2°F21.8°C 69.7°F20.9°C 95% Calm Calm -- 29.75 in1007.5 mb 0.02 in0.5 mm 0.04 in/hr1.0 mm/hr 0.34 in8.6 mm
04:00 AM 71.2°F21.8°C 69.7°F20.9°C 95% Calm Calm -- 29.75 in1007.5 mb 0.01 in0.3 mm 0.00 in/hr0.0 mm/hr 0.33 in8.4 mm
03:45 AM 71.2°F21.8°C 69.7°F20.9°C 95% Calm Calm -- 29.75 in1007.5 mb 0.01 in0.3 mm 0.04 in/hr1.0 mm/hr 0.33 in8.4 mm
03:30 AM 71.4°F21.9°C 69.9°F21.1°C 95% Calm Calm -- 29.75 in1007.5 mb 0.00 in0.0 mm 0.00 in/hr0.0 mm/hr 0.32 in8.1 mm
03:15 AM 71.4°F21.9°C 69.9°F21.1°C 95% Calm Calm -- 29.75 in1007.5 mb 0.00 in0.0 mm 0.00 in/hr0.0 mm/hr 0.32 in8.1 mm
03:00 AM 71.4°F21.9°C 69.9°F21.1°C 95% Calm Calm -- 29.75 in1007.5 mb 0.00 in0.0 mm 0.00 in/hr0.0 mm/hr 0.32 in8.1 mm
02:45 AM 71.4°F21.9°C 69.9°F21.1°C 95% 3.0 mph NE4.8 kmh NE 5.0 mph8.0 kmh 29.75 in1007.5 mb 0.05 in1.3 mm 0.00 in/hr0.0 mm/hr 0.32 in8.1 mm
02:30 AM 72.3°F22.4°C 70.8°F21.6°C 95% 1.0 mph NE1.6 kmh NE 5.0 mph8.0 kmh 29.76 in1007.8 mb 0.14 in3.6 mm 0.00 in/hr0.0 mm/hr 0.32 in8.1 mm
02:15 AM 72.7°F22.6°C 71.2°F21.8°C 95% 2.0 mph NE3.2 kmh NE 5.0 mph8.0 kmh 29.76 in1007.8 mb 0.14 in3.6 mm 0.00 in/hr0.0 mm/hr 0.32 in8.1 mm
02:00 AM 72.5°F22.5°C 71.0°F21.7°C 95% 3.0 mph NNE4.8 kmh NNE 7.0 mph11.3 kmh 29.77 in1008.1 mb 0.14 in3.6 mm 0.03 in/hr0.8 mm/hr 0.32 in8.1 mm
01:45 AM 71.8°F22.1°C 70.3°F21.3°C 95% Calm Calm 3.0 mph4.8 kmh 29.77 in1008.1 mb 0.12 in3.0 mm 0.32 in/hr8.1 mm/hr 0.28 in7.1 mm
01:30 AM 71.4°F21.9°C 69.9°F21.1°C 95% 1.0 mph NW1.6 kmh NW -- 29.77 in1008.1 mb 0.04 in1.0 mm 0.00 in/hr0.0 mm/hr 0.19 in4.8 mm
01:15 AM 71.2°F21.8°C 69.7°F20.9°C 95% 1.0 mph NW1.6 kmh NW 5.0 mph8.0 kmh 29.77 in1008.1 mb 0.05 in1.3 mm 0.00 in/hr0.0 mm/hr 0.19 in4.8 mm
01:00 AM 71.4°F21.9°C 69.9°F21.1°C 95% Calm Calm 2.0 mph3.2 kmh 29.78 in1008.5 mb 0.06 in1.5 mm 0.03 in/hr0.8 mm/hr 0.19 in4.8 mm
12:45 AM 71.2°F21.8°C 69.7°F20.9°C 95% 1.0 mph NW1.6 kmh NW 1.0 mph1.6 kmh 29.79 in1008.8 mb 0.04 in1.0 mm 0.00 in/hr0.0 mm/hr 0.16 in4.1 mm
12:30 AM 71.2°F21.8°C 69.7°F20.9°C 95% 2.0 mph NNW3.2 kmh NNW 7.0 mph11.3 kmh 29.79 in1008.8 mb 0.07 in1.8 mm 0.00 in/hr0.0 mm/hr 0.15 in3.8 mm
12:15 AM 71.2°F21.8°C 69.7°F20.9°C 95% 2.0 mph NNW3.2 kmh NNW 7.0 mph11.3 kmh 29.80 in1009.1 mb 0.09 in2.3 mm 0.00 in/hr0.0 mm/hr 0.14 in3.6 mm
12:00 AM 71.2°F21.8°C 69.4°F20.8°C 94% 1.0 mph N1.6 kmh N -- 29.80 in1009.1 mb 0.13 in3.3 mm 0.00 in/hr0.0 mm/hr 0.13 in3.3 mm